createdAt,value
2022-08-02T00:01:29.249Z,91.19
2022-08-02T00:06:30.957Z,91.78
2022-08-02T00:11:32.618Z,91.42
2022-08-02T00:16:38.397Z,90.37
2022-08-02T00:21:40.262Z,90.93
2022-08-02T00:26:41.901Z,91.38
2022-08-02T00:31:43.576Z,91.11
2022-08-02T00:36:45.432Z,91.00
2022-08-02T00:41:48.540Z,92.01
2022-08-02T00:46:50.264Z,91.66
2022-08-02T00:51:51.950Z,91.16
2022-08-02T00:56:54.696Z,91.96
2022-08-02T01:01:58.343Z,92.34
2022-08-02T01:07:00.916Z,93.41
2022-08-02T01:12:02.931Z,93.88
2022-08-02T01:17:31.610Z,94.51
2022-08-02T01:23:02.564Z,94.88
2022-08-02T01:28:29.647Z,94.85
2022-08-02T01:33:35.625Z,94.73
2022-08-02T01:38:43.388Z,94.46
2022-08-02T01:43:45.102Z,94.46
2022-08-02T01:48:46.876Z,94.41
2022-08-02T01:53:48.763Z,94.20
2022-08-02T01:58:50.467Z,94.44
2022-08-02T02:03:52.490Z,94.59
2022-08-02T02:08:54.180Z,94.82
2022-08-02T02:13:57.998Z,94.91
2022-08-02T02:19:01.427Z,94.36
2022-08-02T02:24:03.120Z,93.39
2022-08-02T02:29:05.316Z,93.60
2022-08-02T02:34:18.280Z,93.80
2022-08-02T02:39:21.251Z,93.95
2022-08-02T02:44:23.010Z,94.59
2022-08-02T02:49:24.900Z,94.52
2022-08-02T02:54:34.457Z,94.16
2022-08-02T02:59:43.016Z,94.85
2022-08-02T03:04:56.824Z,95.37
2022-08-02T03:09:59.751Z,95.60
2022-08-02T03:15:04.649Z,96.26
2022-08-02T03:20:16.933Z,96.37
2022-08-02T03:25:18.954Z,99.54
2022-08-02T03:30:24.547Z,98.46
2022-08-02T03:35:26.244Z,98.46
2022-08-02T03:40:27.943Z,97.09
2022-08-02T03:45:29.625Z,96.33
2022-08-02T03:50:31.727Z,96.79
2022-08-02T03:55:33.661Z,96.26
2022-08-02T04:00:35.413Z,95.76
2022-08-02T04:05:37.110Z,96.32
2022-08-02T04:11:17.620Z,96.16
2022-08-02T04:16:21.112Z,96.03
2022-08-02T04:21:24.724Z,95.90
2022-08-02T04:26:28.221Z,96.03
2022-08-02T04:31:30.203Z,96.63
2022-08-02T04:36:32.057Z,96.16
2022-08-02T04:41:57.184Z,97.35
2022-08-02T04:47:04.766Z,98.56
2022-08-02T04:52:08.354Z,97.69
2022-08-02T04:57:28.975Z,97.42
2022-08-02T05:02:30.663Z,96.57
2022-08-02T05:07:36.130Z,95.69
2022-08-02T05:12:39.053Z,94.13
2022-08-02T05:17:47.746Z,92.99
2022-08-02T05:22:50.237Z,91.85
2022-08-02T05:27:51.913Z,90.79
2022-08-02T05:32:53.653Z,91.20
2022-08-02T05:37:55.312Z,90.90
2022-08-02T05:42:57.304Z,90.72
2022-08-02T05:47:58.973Z,90.58
2022-08-02T05:53:12.060Z,90.36
2022-08-02T05:58:23.148Z,89.52
2022-08-02T06:03:38.111Z,89.58
2022-08-02T06:08:47.789Z,89.18
2022-08-02T06:13:49.837Z,88.69
2022-08-02T06:18:51.514Z,89.01
2022-08-02T06:23:58.722Z,89.20
2022-08-02T06:29:01.174Z,88.42
2022-08-02T06:34:02.884Z,88.34
2022-08-02T06:39:10.056Z,88.16
2022-08-02T06:44:45.043Z,87.48
2022-08-02T06:49:51.594Z,87.42
2022-08-02T06:54:56.818Z,87.13
2022-08-02T07:00:00.991Z,86.28
2022-08-02T07:05:03.795Z,85.27
2022-08-02T07:10:05.640Z,85.23
2022-08-02T07:15:07.912Z,84.64
2022-08-02T07:20:10.044Z,84.17
2022-08-02T07:25:11.870Z,83.67
2022-08-02T07:30:13.646Z,83.83
2022-08-02T07:35:19.308Z,84.07
2022-08-02T07:40:21.689Z,83.71
2022-08-02T07:45:23.896Z,83.56
2022-08-02T07:50:25.643Z,81.91
2022-08-02T07:55:39.303Z,81.80
2022-08-02T08:00:43.121Z,80.95
2022-08-02T08:05:44.797Z,81.19
2022-08-02T08:10:46.882Z,81.06
2022-08-02T08:15:51.734Z,80.73
2022-08-02T08:20:54.296Z,79.58
2022-08-02T08:25:56.194Z,79.66
2022-08-02T08:30:57.869Z,79.41
2022-08-02T08:35:59.569Z,78.83
2022-08-02T08:41:04.459Z,78.56
2022-08-02T08:46:06.272Z,78.48
2022-08-02T08:51:11.042Z,78.08
2022-08-02T08:56:15.928Z,76.98
2022-08-02T09:01:18.169Z,76.93
2022-08-02T09:06:20.480Z,75.16
2022-08-02T09:11:25.467Z,72.58
2022-08-02T09:16:36.879Z,73.10
2022-08-02T09:21:38.999Z,70.31
2022-08-02T09:26:40.677Z,66.94
2022-08-02T09:31:49.405Z,66.74
2022-08-02T09:36:54.758Z,62.98
2022-08-02T09:41:56.544Z,64.18
2022-08-02T09:46:58.215Z,63.05
2022-08-02T09:52:00.971Z,63.05
2022-08-02T09:57:02.630Z,64.48
2022-08-02T10:02:09.630Z,63.64
2022-08-02T10:07:18.885Z,63.45
2022-08-02T10:12:22.337Z,63.82
2022-08-02T10:17:24.817Z,63.50
2022-08-02T10:22:26.501Z,62.65
2022-08-02T10:27:38.913Z,62.64
2022-08-02T10:32:50.201Z,61.02
2022-08-02T10:37:54.596Z,59.22
2022-08-02T10:42:59.602Z,58.64
2022-08-02T10:48:14.468Z,57.55
2022-08-02T10:53:25.688Z,55.25
2022-08-02T10:58:29.888Z,54.41
2022-08-02T11:03:32.811Z,52.53
2022-08-02T11:08:41.147Z,53.74
2022-08-02T11:14:03.667Z,53.24
2022-08-02T11:19:06.803Z,51.13
2022-08-02T11:24:31.842Z,48.43
2022-08-02T11:29:38.679Z,47.46
2022-08-02T11:34:40.677Z,47.66
2022-08-02T11:39:50.166Z,45.64
2022-08-02T11:44:51.875Z,45.03
2022-08-02T11:50:03.534Z,44.87
2022-08-02T11:55:06.716Z,45.52
2022-08-02T12:00:17.017Z,43.16
2022-08-02T12:05:20.117Z,43.52
2022-08-02T12:10:23.111Z,40.52
2022-08-02T12:15:41.616Z,41.12
2022-08-02T12:20:43.275Z,40.58
2022-08-02T12:25:44.991Z,37.72
2022-08-02T12:30:51.562Z,37.65
2022-08-02T12:35:53.298Z,38.23
2022-08-02T12:40:54.985Z,39.22
2022-08-02T12:45:57.431Z,37.53
2022-08-02T12:50:59.153Z,37.94
2022-08-02T12:56:03.620Z,36.94
2022-08-02T13:01:05.628Z,36.12
2022-08-02T13:06:39.389Z,35.87
2022-08-02T13:11:29.247Z,34.97
2022-08-02T13:16:33.003Z,34.32
2022-08-02T13:21:41.143Z,33.00
2022-08-02T13:26:56.347Z,33.12
2022-08-02T13:31:58.027Z,33.62
2022-08-02T13:36:59.693Z,32.75
2022-08-02T13:42:01.503Z,32.10
2022-08-02T13:47:03.340Z,32.20
2022-08-02T13:52:05.335Z,32.72
2022-08-02T13:57:07.051Z,31.27
2022-08-02T14:02:08.801Z,31.12
2022-08-02T14:07:10.483Z,32.06
2022-08-02T14:12:13.194Z,30.18
2022-08-02T14:17:15.759Z,31.34
2022-08-02T14:22:17.414Z,32.41
2022-08-02T14:27:19.096Z,33.86
2022-08-02T14:32:20.761Z,34.86
2022-08-02T14:37:29.770Z,34.62
2022-08-02T14:42:31.513Z,35.00
2022-08-02T14:47:33.434Z,35.36
2022-08-02T14:52:38.062Z,35.27
2022-08-02T14:57:39.769Z,36.71
2022-08-02T15:02:41.507Z,36.13
2022-08-02T15:07:47.796Z,36.65
2022-08-02T15:12:51.156Z,36.87
2022-08-02T15:17:52.806Z,36.45
2022-08-02T15:22:54.561Z,37.28
2022-08-02T15:27:56.238Z,35.15
2022-08-02T15:32:57.914Z,34.99
2022-08-02T15:37:59.633Z,34.21
2022-08-02T15:43:01.368Z,34.52
2022-08-02T15:48:03.795Z,34.57
2022-08-02T15:53:05.535Z,34.94
2022-08-02T15:58:08.014Z,34.06
2022-08-02T16:03:18.904Z,33.51
2022-08-02T16:08:20.554Z,33.85
2022-08-02T16:13:49.923Z,34.25
2022-08-02T16:18:55.543Z,34.19
2022-08-02T16:24:02.699Z,35.14
2022-08-02T16:29:05.173Z,34.86
2022-08-02T16:34:06.904Z,34.94
2022-08-02T16:39:08.563Z,35.01
2022-08-02T16:44:10.753Z,34.96
2022-08-02T16:49:56.654Z,35.39
2022-08-02T16:54:34.331Z,35.72
2022-08-02T16:59:41.887Z,35.29
2022-08-02T17:04:45.053Z,35.67
2022-08-02T17:10:01.957Z,36.07
2022-08-02T17:16:07.972Z,35.84
2022-08-02T17:20:29.509Z,36.44
2022-08-02T17:25:32.182Z,37.16
2022-08-02T17:30:34.235Z,38.08
2022-08-02T17:35:43.823Z,37.70
2022-08-02T17:40:55.215Z,37.50
2022-08-02T17:46:00.560Z,37.71
2022-08-02T17:51:04.017Z,38.13
2022-08-02T17:56:05.706Z,38.42
2022-08-02T18:01:24.261Z,38.77
2022-08-02T18:06:26.255Z,39.47
2022-08-02T18:11:52.666Z,39.34
2022-08-02T18:16:50.437Z,39.22
2022-08-02T18:21:52.088Z,39.62
2022-08-02T18:26:56.689Z,40.08
2022-08-02T18:31:58.453Z,40.35
2022-08-02T18:37:00.211Z,41.05
2022-08-02T18:42:02.108Z,41.62
2022-08-02T18:47:03.806Z,42.30
2022-08-02T18:52:05.745Z,43.21
2022-08-02T18:58:17.199Z,43.56
2022-08-02T19:02:31.154Z,44.28
2022-08-02T19:07:49.793Z,44.44
2022-08-02T19:12:53.421Z,45.09
2022-08-02T19:17:58.042Z,45.74
2022-08-02T19:22:59.843Z,46.70
2022-08-02T19:28:03.351Z,46.96
2022-08-02T19:33:09.255Z,47.60
2022-08-02T19:38:11.473Z,48.54
2022-08-02T19:44:23.039Z,50.56
2022-08-02T19:48:35.085Z,51.05
2022-08-02T19:53:46.687Z,51.78
2022-08-02T19:58:51.363Z,52.75
2022-08-02T20:03:53.690Z,53.22
2022-08-02T20:14:17.022Z,56.91
2022-08-02T20:19:18.674Z,56.59
2022-08-02T20:24:26.566Z,57.02
2022-08-02T20:29:43.773Z,56.92
2022-08-02T20:35:36.256Z,57.58
2022-08-02T20:40:38.000Z,57.23
2022-08-02T20:45:39.695Z,56.12
2022-08-02T20:50:49.319Z,56.13
2022-08-02T20:55:52.346Z,57.27
2022-08-02T21:00:56.625Z,57.47
2022-08-02T21:05:58.764Z,57.53
2022-08-02T21:11:01.346Z,57.62
2022-08-02T21:16:15.013Z,58.20
2022-08-02T21:21:20.108Z,58.41
2022-08-02T21:26:27.851Z,59.23
2022-08-02T21:31:33.418Z,59.19
2022-08-02T21:36:37.621Z,59.81
2022-08-02T21:41:46.811Z,60.33
2022-08-02T21:46:50.485Z,60.57
2022-08-02T21:51:52.451Z,61.00
2022-08-02T21:56:54.186Z,61.44
2022-08-02T22:01:56.924Z,61.58
2022-08-02T22:06:59.014Z,62.07
2022-08-02T22:12:00.659Z,62.75
2022-08-02T22:17:05.317Z,63.07
2022-08-02T22:22:10.563Z,63.69
2022-08-02T22:27:12.211Z,64.10
2022-08-02T22:32:35.406Z,63.90
2022-08-02T22:43:00.919Z,64.43
2022-08-02T22:48:03.679Z,64.75
2022-08-02T22:53:05.480Z,64.93
2022-08-02T22:58:07.130Z,64.91
2022-08-02T22:58:54.654Z,53.94
2022-08-02T23:03:08.856Z,65.05
2022-08-02T23:08:10.558Z,65.22
2022-08-02T23:13:12.258Z,65.27
2022-08-02T23:18:32.424Z,65.36
2022-08-02T23:23:34.132Z,65.90
2022-08-02T23:28:35.912Z,65.92
2022-08-02T23:33:37.616Z,65.54
2022-08-02T23:39:02.138Z,65.85
2022-08-02T23:44:13.976Z,66.63
2022-08-02T23:49:16.580Z,67.30
2022-08-02T23:54:18.357Z,67.52
2022-08-02T23:59:20.027Z,66.85
